Terminal Aerodrome Forecast
Issued by NWS

Home | Current Version | Previous Version | Graphics & Text | Print | Product List | Glossary On
Versions: 1 2 3 4 5 6 7 8 9 10 11 12 13 14 15 16 17 18 19
918
FTUS42 KMHX 191743
TAFPGV
TAF
KPGV 191743Z 1918/2018 25006KT P6SM VCTS SCT025 BKN045CB
     FM200200 30003KT P6SM BKN050
     FM200800 35005KT P6SM SKC
     FM201400 03011G16KT P6SM SCT035
      AMD LTD TO CLD VIS AND WIND=

USA.gov is the U.S. government's official web portal to all federal, state and local government web resources and services.